Terminal Aerodrome Forecast
Issued by NWS Newport/Morehead City, NC

Home | Current Version | Previous Version | Graphics & Text | Print | Product List | Glossary On
Versions: 1 2 3 4 5 6 7 8 9 10 11 12 13 14 15 16 17
000
FTUS42 KMHX 270521
TAFEWN
TAF
KEWN 270521Z 2706/2806 VRB03KT P6SM SKC
      TEMPO 2708/2711 3SM BR
     FM271200 06005KT P6SM SKC
     FM271800 10007KT P6SM SCT040=

USA.gov is the U.S. government's official web portal to all federal, state and local government web resources and services.